createdAt,value
2022-12-08T00:04:58.427Z,7.13
2022-12-08T00:20:00.198Z,7.00
2022-12-08T00:35:02.541Z,7.43
2022-12-08T00:50:05.787Z,4.93
2022-12-08T01:05:08.394Z,6.43
2022-12-08T01:20:10.292Z,7.77
2022-12-08T01:35:12.631Z,7.03
2022-12-08T01:50:17.491Z,6.83
2022-12-08T02:05:22.835Z,6.73
2022-12-08T02:20:46.089Z,8.17
2022-12-08T02:36:12.042Z,6.47
2022-12-08T02:51:13.828Z,6.67
2022-12-08T03:06:40.855Z,7.03
2022-12-08T03:21:45.868Z,6.53
2022-12-08T03:36:48.014Z,7.83
2022-12-08T03:51:49.855Z,7.53
2022-12-08T04:06:51.759Z,8.37
2022-12-08T04:21:53.547Z,9.40
2022-12-08T04:36:55.531Z,8.43
2022-12-08T04:51:57.414Z,8.77
2022-12-08T05:06:59.297Z,8.20
2022-12-08T05:22:01.077Z,9.33
2022-12-08T05:37:03.101Z,9.43
2022-12-08T05:52:04.989Z,11.00
2022-12-08T06:07:08.035Z,10.20
2022-12-08T06:22:11.430Z,10.97
2022-12-08T06:37:13.772Z,8.97
2022-12-08T06:52:15.953Z,10.43
2022-12-08T07:07:17.751Z,9.33
2022-12-08T07:22:19.567Z,10.73
2022-12-08T07:37:23.111Z,10.67
2022-12-08T07:52:25.069Z,11.50
2022-12-08T08:07:26.925Z,12.63
2022-12-08T08:22:29.239Z,11.03
2022-12-08T08:37:31.396Z,7.30
2022-12-08T08:52:33.321Z,8.57
2022-12-08T09:07:35.186Z,10.90
2022-12-08T09:22:36.977Z,9.30
2022-12-08T09:37:40.132Z,10.77
2022-12-08T09:52:47.449Z,8.23
2022-12-08T10:07:59.520Z,8.43
2022-12-08T10:23:13.816Z,9.33
2022-12-08T10:38:27.165Z,8.20
2022-12-08T10:53:34.205Z,9.00
2022-12-08T11:08:49.343Z,7.47
2022-12-08T11:23:51.200Z,7.00
2022-12-08T11:38:57.848Z,8.40
2022-12-08T11:54:12.869Z,8.20
2022-12-08T12:09:33.342Z,10.27
2022-12-08T12:24:38.688Z,10.03
2022-12-08T12:40:15.830Z,10.30
2022-12-08T12:55:24.628Z,8.93
2022-12-08T13:10:31.869Z,10.17
2022-12-08T13:25:45.496Z,10.03
2022-12-08T13:40:48.475Z,7.77
2022-12-08T14:26:37.147Z,8.37
2022-12-08T14:41:39.697Z,9.43
2022-12-08T14:56:43.845Z,10.33
2022-12-08T15:11:45.717Z,12.47
2022-12-08T15:26:50.537Z,10.77
2022-12-08T15:41:52.570Z,8.97
2022-12-08T15:57:18.728Z,9.30
2022-12-08T16:28:29.616Z,8.07
2022-12-08T16:43:28.199Z,11.20
2022-12-08T16:58:32.795Z,10.10
2022-12-08T17:13:36.241Z,7.97
2022-12-08T17:28:59.543Z,6.83
2022-12-08T17:44:01.271Z,9.20
2022-12-08T17:59:33.026Z,7.20
2022-12-08T18:14:39.641Z,7.33
2022-12-08T18:29:41.490Z,8.80
2022-12-08T18:44:43.852Z,6.57
2022-12-08T18:59:46.056Z,7.23
2022-12-08T19:14:48.024Z,8.83
2022-12-08T19:29:49.862Z,7.33
2022-12-08T19:44:54.831Z,9.53
2022-12-08T19:59:56.698Z,8.40
2022-12-08T20:15:01.469Z,7.90
2022-12-08T20:30:04.300Z,9.20
2022-12-08T20:45:09.633Z,9.57
2022-12-08T21:00:12.794Z,9.07
2022-12-08T21:15:14.886Z,11.00
2022-12-08T21:30:17.822Z,10.23
2022-12-08T21:45:22.328Z,10.93
2022-12-08T22:00:24.690Z,10.57
2022-12-08T22:15:29.862Z,13.03
2022-12-08T22:30:37.215Z,11.73
2022-12-08T22:45:41.594Z,10.53
2022-12-08T23:00:43.681Z,12.87
2022-12-08T23:15:46.033Z,12.30
2022-12-08T23:30:47.825Z,13.63
2022-12-08T23:45:50.166Z,13.57
